createdAt,value
2018-12-09T00:00:26.721Z,1.10
2018-12-09T00:02:54.271Z,1.77
2018-12-09T00:05:21.815Z,1.73
2018-12-09T00:07:49.563Z,1.27
2018-12-09T00:10:17.012Z,1.10
2018-12-09T00:12:45.153Z,0.80
2018-12-09T00:15:12.948Z,0.90
2018-12-09T00:17:40.548Z,1.03
2018-12-09T00:20:08.109Z,1.27
2018-12-09T00:22:35.661Z,3.63
2018-12-09T00:25:03.454Z,1.80
2018-12-09T00:27:30.970Z,1.63
2018-12-09T00:29:59.428Z,2.27
2018-12-09T00:32:27.123Z,2.87
2018-12-09T00:34:54.690Z,2.13
2018-12-09T00:37:22.330Z,3.30
2018-12-09T00:39:49.972Z,3.63
2018-12-09T00:42:17.594Z,3.00
2018-12-09T00:44:45.171Z,3.33
2018-12-09T00:47:13.191Z,1.90
2018-12-09T00:49:41.409Z,3.10
2018-12-09T00:52:08.932Z,3.27
2018-12-09T00:54:37.499Z,2.87
2018-12-09T00:57:05.235Z,2.73
2018-12-09T00:59:32.779Z,3.00
2018-12-09T01:02:05.203Z,2.00
2018-12-09T01:04:33.088Z,2.70
2018-12-09T01:07:00.791Z,2.20
2018-12-09T01:09:28.588Z,3.30
2018-12-09T01:11:56.252Z,3.43
2018-12-09T01:14:23.820Z,2.70
2018-12-09T01:16:52.715Z,2.30
2018-12-09T01:19:21.139Z,2.40
2018-12-09T01:21:48.725Z,2.40
2018-12-09T01:24:16.354Z,2.97
2018-12-09T01:26:44.433Z,2.40
2018-12-09T01:29:11.929Z,2.43
2018-12-09T01:31:39.601Z,2.23
2018-12-09T01:34:07.238Z,3.77
2018-12-09T01:36:34.853Z,2.30
2018-12-09T01:39:02.423Z,2.60
2018-12-09T01:41:29.873Z,2.07
2018-12-09T01:43:57.374Z,2.50
2018-12-09T01:46:24.921Z,4.17
2018-12-09T01:48:52.432Z,2.57
2018-12-09T01:51:20.051Z,2.50
2018-12-09T01:54:09.525Z,2.73
2018-12-09T01:56:37.678Z,2.63
2018-12-09T01:59:05.544Z,2.50
2018-12-09T02:01:33.139Z,4.60
2018-12-09T02:04:00.668Z,4.90
2018-12-09T02:06:28.348Z,2.27
2018-12-09T02:08:55.851Z,2.33
2018-12-09T02:11:23.312Z,2.53
2018-12-09T02:13:51.630Z,2.60
2018-12-09T02:16:19.366Z,1.77
2018-12-09T02:18:47.747Z,1.63
2018-12-09T02:21:16.349Z,2.07
2018-12-09T02:23:45.540Z,1.37
2018-12-09T02:26:13.075Z,1.33
2018-12-09T02:28:43.169Z,1.73
2018-12-09T02:31:11.941Z,1.57
2018-12-09T02:33:39.459Z,2.50
2018-12-09T02:36:07.080Z,0.60
2018-12-09T02:38:35.243Z,0.63
2018-12-09T02:41:03.253Z,0.80
2018-12-09T02:43:30.847Z,0.87
2018-12-09T02:45:58.490Z,1.63
2018-12-09T02:48:25.982Z,1.20
2018-12-09T02:50:53.789Z,1.20
2018-12-09T02:53:21.378Z,0.70
2018-12-09T02:55:49.513Z,0.40
2018-12-09T02:58:17.111Z,0.97
2018-12-09T03:00:45.311Z,1.27
2018-12-09T03:03:13.015Z,1.90
2018-12-09T03:05:40.747Z,1.03
2018-12-09T03:08:09.066Z,1.00
2018-12-09T03:10:37.169Z,1.30
2018-12-09T03:13:04.787Z,1.10
2018-12-09T03:15:32.811Z,1.53
2018-12-09T03:18:00.384Z,0.80
2018-12-09T03:20:28.003Z,0.80
2018-12-09T03:22:55.723Z,0.93
2018-12-09T03:25:23.322Z,1.60
2018-12-09T03:27:51.260Z,0.97
2018-12-09T03:30:18.920Z,1.83
2018-12-09T03:32:46.505Z,1.13
2018-12-09T03:35:14.089Z,1.63
2018-12-09T03:37:41.687Z,1.43
2018-12-09T03:40:09.800Z,1.17
2018-12-09T03:42:37.396Z,1.60
2018-12-09T03:45:05.284Z,1.37
2018-12-09T03:47:32.862Z,1.27
2018-12-09T03:50:00.541Z,1.30
2018-12-09T03:52:28.123Z,1.60
2018-12-09T03:54:55.661Z,1.10
2018-12-09T03:57:23.790Z,0.90
2018-12-09T03:59:51.401Z,0.87
2018-12-09T04:02:18.889Z,1.70
2018-12-09T04:04:46.700Z,0.60
2018-12-09T04:07:14.373Z,1.97
2018-12-09T04:09:41.917Z,0.70
2018-12-09T04:12:09.466Z,0.73
2018-12-09T04:14:36.961Z,0.70
2018-12-09T04:17:04.510Z,0.90
2018-12-09T04:19:32.054Z,0.60
2018-12-09T04:21:59.732Z,0.50
2018-12-09T04:24:27.206Z,0.70
2018-12-09T04:26:54.855Z,0.80
2018-12-09T04:29:22.638Z,0.63
2018-12-09T04:31:51.088Z,1.10
2018-12-09T04:34:18.679Z,0.77
2018-12-09T04:36:46.828Z,1.07
2018-12-09T04:39:14.394Z,0.50
2018-12-09T04:41:42.007Z,0.50
2018-12-09T04:44:09.952Z,0.73
2018-12-09T04:46:37.582Z,1.30
2018-12-09T04:49:05.023Z,0.40
2018-12-09T04:51:43.745Z,1.33
2018-12-09T04:54:11.149Z,0.83
2018-12-09T04:56:39.669Z,0.93
2018-12-09T04:59:16.584Z,1.83
2018-12-09T05:01:44.638Z,1.10
2018-12-09T05:04:12.446Z,1.20
2018-12-09T05:06:40.022Z,1.67
2018-12-09T05:09:07.652Z,1.37
2018-12-09T05:11:35.870Z,0.50
2018-12-09T05:14:03.873Z,0.63
2018-12-09T05:16:31.439Z,1.10
2018-12-09T05:18:59.065Z,0.60
2018-12-09T05:21:26.562Z,0.60
2018-12-09T05:23:54.059Z,1.57
2018-12-09T05:26:22.467Z,0.80
2018-12-09T05:28:50.026Z,0.60
2018-12-09T05:31:18.227Z,0.63
2018-12-09T05:33:45.783Z,0.60
2018-12-09T05:36:13.379Z,1.03
2018-12-09T05:38:41.363Z,3.07
2018-12-09T05:41:08.885Z,2.27
2018-12-09T05:43:36.355Z,2.00
2018-12-09T05:46:04.129Z,0.80
2018-12-09T05:48:31.598Z,1.10
2018-12-09T05:50:59.645Z,1.50
2018-12-09T05:53:27.158Z,2.43
2018-12-09T05:55:54.990Z,0.90
2018-12-09T05:58:29.098Z,0.90
2018-12-09T06:00:56.586Z,1.47
2018-12-09T06:03:24.333Z,1.00
2018-12-09T06:05:51.832Z,1.57
2018-12-09T06:08:19.414Z,1.60
2018-12-09T06:10:47.137Z,1.17
2018-12-09T06:13:14.743Z,1.33
2018-12-09T06:15:43.535Z,1.33
2018-12-09T06:18:11.220Z,1.60
2018-12-09T06:20:38.855Z,1.13
2018-12-09T06:23:06.580Z,1.60
2018-12-09T06:25:34.098Z,1.70
2018-12-09T06:28:01.856Z,1.43
2018-12-09T06:30:29.667Z,1.80
2018-12-09T06:32:57.097Z,1.40
2018-12-09T06:35:25.278Z,1.40
2018-12-09T06:37:52.789Z,2.50
2018-12-09T06:40:20.824Z,3.43
2018-12-09T06:42:48.414Z,2.03
2018-12-09T06:45:15.889Z,3.77
2018-12-09T06:47:44.242Z,4.27
2018-12-09T06:50:11.814Z,3.30
2018-12-09T06:52:39.919Z,2.33
2018-12-09T06:55:08.738Z,1.50
2018-12-09T06:57:36.362Z,1.67
2018-12-09T07:00:06.120Z,2.37
2018-12-09T07:02:34.215Z,2.07
2018-12-09T07:05:01.853Z,2.67
2018-12-09T07:07:29.543Z,1.57
2018-12-09T07:09:57.071Z,1.30
2018-12-09T07:12:24.574Z,1.47
2018-12-09T07:14:52.096Z,1.43
2018-12-09T07:17:19.596Z,1.30
2018-12-09T07:19:48.495Z,2.73
2018-12-09T07:22:15.980Z,2.50
2018-12-09T07:24:43.567Z,1.20
2018-12-09T07:27:11.467Z,1.20
2018-12-09T07:29:39.102Z,1.40
2018-12-09T07:32:06.677Z,1.50
2018-12-09T07:34:34.791Z,1.53
2018-12-09T07:37:02.330Z,1.50
2018-12-09T07:39:29.959Z,1.00
2018-12-09T07:41:57.667Z,1.27
2018-12-09T07:44:25.630Z,1.70
2018-12-09T07:46:53.280Z,1.60
2018-12-09T07:49:20.783Z,2.20
2018-12-09T07:51:48.412Z,2.10
2018-12-09T07:54:16.059Z,1.70
2018-12-09T07:56:43.791Z,2.97
2018-12-09T07:59:11.676Z,2.33
2018-12-09T08:01:39.610Z,2.77
2018-12-09T08:04:07.368Z,2.30
2018-12-09T08:06:35.009Z,1.87
2018-12-09T08:09:04.089Z,1.90
2018-12-09T08:24:36.148Z,2.10
2018-12-09T08:27:04.340Z,2.27
2018-12-09T08:29:31.830Z,2.17
2018-12-09T08:31:59.529Z,2.40
2018-12-09T08:34:27.990Z,2.20
2018-12-09T08:36:56.276Z,2.97
2018-12-09T08:39:24.514Z,2.13
2018-12-09T08:41:52.189Z,2.90
2018-12-09T08:44:19.879Z,2.43
2018-12-09T08:46:47.341Z,1.87
2018-12-09T08:49:15.057Z,1.47
2018-12-09T08:51:42.587Z,2.83
2018-12-09T08:54:10.193Z,2.20
2018-12-09T08:56:37.803Z,1.97
2018-12-09T08:59:05.803Z,2.10
2018-12-09T09:01:35.931Z,1.77
2018-12-09T09:04:03.662Z,1.80
2018-12-09T09:06:31.188Z,1.40
2018-12-09T09:08:58.686Z,1.60
2018-12-09T09:11:26.381Z,2.20
2018-12-09T09:13:53.959Z,1.40
2018-12-09T09:16:21.510Z,1.67
2018-12-09T09:18:49.067Z,1.13
2018-12-09T09:21:16.709Z,1.30
2018-12-09T09:23:44.355Z,1.47
2018-12-09T09:26:12.127Z,1.63
2018-12-09T09:28:39.680Z,1.60
2018-12-09T09:31:07.164Z,1.47
2018-12-09T09:33:35.656Z,2.03
2018-12-09T09:36:03.176Z,4.33
2018-12-09T09:38:30.706Z,1.70
2018-12-09T09:40:59.027Z,1.13
2018-12-09T09:43:27.095Z,0.83
2018-12-09T09:45:54.722Z,1.00
2018-12-09T09:48:22.223Z,1.10
2018-12-09T09:50:49.948Z,0.87
2018-12-09T09:53:18.068Z,0.60
2018-12-09T09:55:45.960Z,0.80
2018-12-09T09:58:13.585Z,0.53
2018-12-09T10:00:41.925Z,1.17
2018-12-09T10:03:10.036Z,0.67
2018-12-09T10:05:37.874Z,0.60
2018-12-09T10:08:05.357Z,0.93
2018-12-09T10:10:33.132Z,1.50
2018-12-09T10:13:01.255Z,0.40
2018-12-09T10:15:29.858Z,1.13
2018-12-09T10:17:57.484Z,1.23
2018-12-09T10:20:25.778Z,0.87
2018-12-09T10:22:53.964Z,1.33
2018-12-09T10:25:21.637Z,1.27
2018-12-09T10:27:49.122Z,0.87
2018-12-09T10:30:16.527Z,1.10
2018-12-09T10:32:44.060Z,0.40
2018-12-09T10:35:11.689Z,0.40
2018-12-09T10:37:39.942Z,0.63
2018-12-09T10:40:07.579Z,0.67
2018-12-09T10:42:35.379Z,0.60
2018-12-09T10:45:04.138Z,0.70
2018-12-09T10:47:31.615Z,0.70
2018-12-09T11:03:03.801Z,0.53
2018-12-09T11:05:31.939Z,0.60
2018-12-09T11:08:01.059Z,0.90
2018-12-09T11:10:28.600Z,1.30
2018-12-09T11:12:56.119Z,0.83
2018-12-09T11:15:23.719Z,0.70
2018-12-09T11:17:51.259Z,1.43
2018-12-09T11:20:18.879Z,1.10
2018-12-09T11:22:46.598Z,1.73
2018-12-09T11:25:14.410Z,0.93
2018-12-09T11:27:42.261Z,1.73
2018-12-09T11:30:17.265Z,1.47
2018-12-09T11:32:44.676Z,0.80
2018-12-09T11:35:12.774Z,0.93
2018-12-09T11:37:40.409Z,0.50
2018-12-09T11:40:08.376Z,0.70
2018-12-09T11:42:35.872Z,1.30
2018-12-09T11:45:03.650Z,0.87
2018-12-09T11:47:31.519Z,0.70
2018-12-09T11:49:59.393Z,0.80
2018-12-09T11:52:27.640Z,0.67
2018-12-09T11:54:55.330Z,0.77
2018-12-09T11:57:23.508Z,1.30
2018-12-09T11:59:51.622Z,0.47
2018-12-09T12:02:20.878Z,0.63
2018-12-09T12:04:48.414Z,0.70
2018-12-09T12:07:16.055Z,0.60
2018-12-09T12:09:44.323Z,0.50
2018-12-09T12:12:12.934Z,0.30
2018-12-09T12:14:41.276Z,0.83
2018-12-09T12:17:09.323Z,0.40
2018-12-09T12:19:36.893Z,0.60
2018-12-09T12:22:05.381Z,0.80
2018-12-09T12:24:32.909Z,0.57
2018-12-09T12:27:01.201Z,0.60
2018-12-09T12:29:29.677Z,0.83
2018-12-09T12:31:57.374Z,0.60
2018-12-09T12:34:25.417Z,1.20
2018-12-09T12:36:53.093Z,0.50
2018-12-09T12:39:20.717Z,0.40
2018-12-09T12:41:48.431Z,0.57
2018-12-09T12:44:16.186Z,0.90
2018-12-09T12:46:44.785Z,1.23
2018-12-09T12:49:12.469Z,0.50
2018-12-09T12:51:40.452Z,0.67
2018-12-09T12:54:08.897Z,0.63
2018-12-09T12:56:37.255Z,0.73
2018-12-09T12:59:04.962Z,0.40
2018-12-09T13:01:34.110Z,0.70
2018-12-09T13:04:01.766Z,0.50
2018-12-09T13:06:30.375Z,0.83
2018-12-09T13:08:58.073Z,0.50
2018-12-09T13:11:25.736Z,0.80
2018-12-09T13:13:53.930Z,1.23
2018-12-09T13:16:21.958Z,1.23
2018-12-09T13:31:54.158Z,0.90
2018-12-09T13:34:22.848Z,1.07
2018-12-09T13:36:50.596Z,1.70
2018-12-09T13:39:18.390Z,1.30
2018-12-09T13:41:46.511Z,0.63
2018-12-09T13:57:18.705Z,0.83
2018-12-09T13:59:46.474Z,1.23
2018-12-09T14:02:14.594Z,1.23
2018-12-09T14:04:42.321Z,0.80
2018-12-09T14:07:10.327Z,0.50
2018-12-09T14:09:37.997Z,0.70
2018-12-09T14:12:05.548Z,0.67
2018-12-09T14:14:38.947Z,0.60
2018-12-09T14:17:07.170Z,0.70
2018-12-09T14:19:34.774Z,0.87
2018-12-09T14:22:03.107Z,1.83
2018-12-09T14:24:30.959Z,0.60
2018-12-09T14:26:58.440Z,0.70
2018-12-09T14:29:28.024Z,0.83
2018-12-09T14:31:55.953Z,1.10
2018-12-09T14:34:23.652Z,0.97
2018-12-09T14:36:51.746Z,1.10
2018-12-09T14:39:20.741Z,1.00
2018-12-09T14:41:49.055Z,1.20
2018-12-09T14:44:16.755Z,0.73
2018-12-09T14:46:44.335Z,1.13
2018-12-09T14:49:13.012Z,0.80
2018-12-09T14:51:42.655Z,0.80
2018-12-09T14:54:10.334Z,0.80
2018-12-09T14:56:37.893Z,2.43
2018-12-09T14:59:05.490Z,0.83
2018-12-09T15:01:35.492Z,0.90
2018-12-09T15:04:34.588Z,0.83
2018-12-09T15:07:02.295Z,0.80
2018-12-09T15:09:30.109Z,0.87
2018-12-09T15:11:57.659Z,0.77
2018-12-09T15:14:25.194Z,1.30
2018-12-09T15:16:53.169Z,1.37
2018-12-09T15:19:21.500Z,2.63
2018-12-09T15:21:49.171Z,0.90
2018-12-09T15:24:16.899Z,1.63
2018-12-09T15:26:44.485Z,1.50
2018-12-09T15:29:12.039Z,1.80
2018-12-09T15:31:39.690Z,0.87
2018-12-09T15:34:07.494Z,1.97
2018-12-09T15:36:35.064Z,1.57
2018-12-09T15:39:04.363Z,1.10
2018-12-09T15:41:31.963Z,1.37
2018-12-09T15:43:59.521Z,0.80
2018-12-09T15:46:27.010Z,0.97
2018-12-09T15:48:56.191Z,0.70
2018-12-09T15:51:23.913Z,1.07
2018-12-09T15:53:52.070Z,1.00
2018-12-09T15:56:19.656Z,1.10
2018-12-09T15:58:47.162Z,1.40
2018-12-09T16:01:14.829Z,1.40
2018-12-09T16:03:46.059Z,1.30
2018-12-09T16:06:13.609Z,1.83
2018-12-09T16:08:41.169Z,0.80
2018-12-09T16:11:08.719Z,0.93
2018-12-09T16:13:36.510Z,0.70
2018-12-09T16:16:04.101Z,2.00
2018-12-09T16:18:31.666Z,1.10
2018-12-09T16:20:59.442Z,0.90
2018-12-09T16:23:27.127Z,1.30
2018-12-09T16:25:54.733Z,1.57
2018-12-09T16:28:22.332Z,1.40
2018-12-09T16:30:49.810Z,1.60
2018-12-09T16:33:18.001Z,1.23
2018-12-09T16:35:47.547Z,1.00
2018-12-09T16:38:15.399Z,1.80
2018-12-09T16:40:43.035Z,1.40
2018-12-09T16:43:11.733Z,2.60
2018-12-09T16:45:39.879Z,1.60
2018-12-09T16:48:07.454Z,1.03
2018-12-09T16:50:36.593Z,2.10
2018-12-09T16:53:10.859Z,1.83
2018-12-09T16:55:47.510Z,1.30
2018-12-09T16:58:15.095Z,1.60
2018-12-09T17:00:42.573Z,2.00
2018-12-09T17:03:10.651Z,2.10
2018-12-09T17:05:38.845Z,2.00
2018-12-09T17:08:06.536Z,2.37
2018-12-09T17:10:35.320Z,2.60
2018-12-09T17:13:03.117Z,2.27
2018-12-09T17:15:31.672Z,1.80
2018-12-09T17:18:00.875Z,2.60
2018-12-09T17:20:30.175Z,4.47
2018-12-09T17:23:04.823Z,3.63
2018-12-09T17:25:37.110Z,3.47
2018-12-09T17:28:06.264Z,4.10
2018-12-09T17:35:43.663Z,3.37
2018-12-09T17:38:17.773Z,2.70
2018-12-09T17:40:47.222Z,3.60
2018-12-09T17:43:26.290Z,2.47
2018-12-09T17:46:01.531Z,2.00
2018-12-09T17:48:39.506Z,2.40
2018-12-09T17:51:14.534Z,1.80
2018-12-09T17:54:09.414Z,1.90
2018-12-09T17:56:41.173Z,1.90
2018-12-09T17:59:25.764Z,6.70
2018-12-09T18:05:04.267Z,10.17
2018-12-09T18:07:53.632Z,9.90
2018-12-09T18:10:29.481Z,4.57
2018-12-09T18:13:04.850Z,18.30
2018-12-09T18:16:02.519Z,4.80
2018-12-09T18:18:36.269Z,5.03
2018-12-09T18:24:02.434Z,3.43
2018-12-09T18:29:59.114Z,5.13
2018-12-09T18:32:27.962Z,2.30
2018-12-09T18:34:56.913Z,2.30
2018-12-09T18:37:32.176Z,2.50
2018-12-09T18:40:06.241Z,2.00
2018-12-09T18:42:39.747Z,3.10
2018-12-09T18:45:11.245Z,3.27
2018-12-09T18:47:46.131Z,1.90
2018-12-09T18:50:15.928Z,2.30
2018-12-09T18:52:45.596Z,2.37
2018-12-09T18:55:16.503Z,2.20
2018-12-09T18:57:48.259Z,2.37
2018-12-09T19:00:17.774Z,2.77
2018-12-09T19:02:48.435Z,2.63
2018-12-09T19:05:22.941Z,2.17
2018-12-09T19:10:33.575Z,4.97
2018-12-09T19:13:02.293Z,4.37
2018-12-09T19:15:40.001Z,2.40
2018-12-09T19:18:07.491Z,4.93
2018-12-09T19:20:35.031Z,4.33
2018-12-09T19:23:02.722Z,2.33
2018-12-09T19:25:32.094Z,4.10
2018-12-09T19:29:26.333Z,2.67
2018-12-09T19:31:53.909Z,4.40
2018-12-09T19:34:22.881Z,4.03
2018-12-09T19:36:58.993Z,3.80
2018-12-09T19:39:30.448Z,5.10
2018-12-09T19:43:28.023Z,6.30
2018-12-09T19:45:57.518Z,4.40
2018-12-09T19:48:28.846Z,2.87
2018-12-09T19:50:59.058Z,4.70
2018-12-09T19:53:37.011Z,3.97
2018-12-09T19:56:07.124Z,7.10
2018-12-09T19:58:37.039Z,9.60
2018-12-09T20:01:05.584Z,4.53
2018-12-09T20:03:53.830Z,4.50
2018-12-09T20:06:25.264Z,7.30
2018-12-09T20:08:54.502Z,5.33
2018-12-09T20:11:23.909Z,4.50
2018-12-09T20:13:52.451Z,3.23
2018-12-09T20:16:20.338Z,5.53
2018-12-09T20:18:47.894Z,5.10
2018-12-09T20:21:15.564Z,3.83
2018-12-09T20:23:43.142Z,1.33
2018-12-09T20:26:10.981Z,4.33
2018-12-09T20:28:38.457Z,1.57
2018-12-09T20:31:06.077Z,1.70
2018-12-09T20:33:37.149Z,2.43
2018-12-09T20:36:05.043Z,1.80
2018-12-09T20:38:35.417Z,2.43
2018-12-09T20:41:08.158Z,1.87
2018-12-09T20:43:38.078Z,1.37
2018-12-09T20:46:09.164Z,2.63
2018-12-09T20:48:39.270Z,2.20
2018-12-09T20:51:11.119Z,5.17
2018-12-09T20:53:38.813Z,1.40
2018-12-09T20:56:07.050Z,3.87
2018-12-09T20:58:50.150Z,6.77
2018-12-09T21:01:19.769Z,4.30
2018-12-09T21:04:03.393Z,3.70
2018-12-09T21:06:46.283Z,2.83
2018-12-09T21:09:24.460Z,3.97
2018-12-09T21:11:56.212Z,2.73
2018-12-09T21:14:23.762Z,4.37
2018-12-09T21:16:54.497Z,4.43
2018-12-09T21:19:25.730Z,6.27
2018-12-09T21:27:58.054Z,4.63
2018-12-09T21:30:25.796Z,2.00
2018-12-09T21:33:04.008Z,2.80
2018-12-09T21:35:36.840Z,5.53
2018-12-09T21:41:35.620Z,6.87
2018-12-09T21:44:13.060Z,3.50
2018-12-09T21:46:40.939Z,8.43
2018-12-09T21:49:10.360Z,5.43
2018-12-09T21:51:37.940Z,5.77
2018-12-09T21:54:05.512Z,3.73
2018-12-09T21:56:33.058Z,2.90
2018-12-09T21:59:01.494Z,2.83
2018-12-09T22:01:29.395Z,4.40
2018-12-09T22:03:56.965Z,4.53
2018-12-09T22:06:25.758Z,2.63
2018-12-09T22:08:54.995Z,3.53
2018-12-09T22:11:23.173Z,4.77
2018-12-09T22:13:51.139Z,4.47
2018-12-09T22:16:20.311Z,4.50
2018-12-09T22:18:48.819Z,3.13
2018-12-09T22:21:18.559Z,3.20
2018-12-09T22:23:46.569Z,3.83
2018-12-09T22:26:14.861Z,4.63
2018-12-09T22:28:42.910Z,2.77
2018-12-09T22:31:10.736Z,3.03
2018-12-09T22:33:39.071Z,3.20
2018-12-09T22:36:06.658Z,3.30
2018-12-09T22:38:34.473Z,5.50
2018-12-09T22:41:02.403Z,5.93
2018-12-09T22:43:29.994Z,2.20
2018-12-09T22:45:57.621Z,2.20
2018-12-09T22:48:25.246Z,5.93
2018-12-09T22:50:52.797Z,3.53
2018-12-09T22:53:21.188Z,2.57
2018-12-09T22:55:49.324Z,3.20
2018-12-09T22:58:16.885Z,4.50
2018-12-09T23:00:51.964Z,2.50
2018-12-09T23:03:20.739Z,2.40
2018-12-09T23:05:48.285Z,3.57
2018-12-09T23:08:15.907Z,4.60
2018-12-09T23:10:43.924Z,2.60
2018-12-09T23:13:13.438Z,4.70
2018-12-09T23:17:07.309Z,3.80
2018-12-09T23:19:34.931Z,4.40
2018-12-09T23:22:02.768Z,4.53
2018-12-09T23:24:30.646Z,3.17
2018-12-09T23:26:58.066Z,4.33
2018-12-09T23:29:25.842Z,3.47
2018-12-09T23:31:54.127Z,4.40
2018-12-09T23:34:21.742Z,3.23
2018-12-09T23:36:50.244Z,3.13
2018-12-09T23:39:17.872Z,4.67
2018-12-09T23:41:46.293Z,4.30
2018-12-09T23:44:14.109Z,4.13
2018-12-09T23:46:41.661Z,5.00
2018-12-09T23:49:09.143Z,3.80
2018-12-09T23:51:36.579Z,2.57
2018-12-09T23:54:04.211Z,3.20
2018-12-09T23:56:31.780Z,3.60
2018-12-09T23:58:59.371Z,1.90
